Terminal Aerodrome Forecast
Issued by NWS Boise, ID

Home | Current Version | Previous Version | Text Only | Print | Product List | Glossary On
Versions: 1 2 3 4 5 6 7 8 9 10 11 12 13 14 15 16 17 18 19 20 21 22 23 24 25 26 27 28 29 30 31 32
000
FTUS45 KBOI 311120
TAFBNO
TAF
KBNO 311120Z 3112/0112 VRB05KT P6SM FEW100 SCT200
     FM311900 VRB06KT P6SM VCTS SCT080CB BKN150
      TEMPO 3121/3124 VRB20G30KT 6SM TSRA BKN060CB
     FM010300 VRB05KT P6SM SCT080 BKN150=

USA.gov is the U.S. government's official web portal to all federal, state and local government web resources and services.